Time;durP1;ratioP1;P1;durP2;ratioP2;P2;SDS_P1;SDS_P2;PMS_P1;PMS_P2;Temp;Humidity;BMP_temperature;BMP_pressure;BME280_temperature;BME280_humidity;BME280_pressure;Samples;Min_cycle;Max_cycle;Signal;HPM_P1;HPM_P2
2023/01/17 00:01:09;;;;;;;;;10.00;10.00;;;;;5.91;67.35;98449.09;5040383;28;45501;-72
2023/01/17 00:11:54;;;;;;;;;11.33;9.00;;;;;6.35;67.47;98491.63;5041946;28;45428;-72
2023/01/17 00:14:19;;;;;;;;;11.00;10.00;;;;;6.05;67.42;98437.84;5040287;28;45344;-74
2023/01/17 00:16:45;;;;;;;;;9.67;9.67;;;;;6.37;67.58;98492.25;5053786;28;45264;-74
2023/01/17 01:33:46;;;;;;;;;9.33;9.33;;;;;5.98;67.62;98415.75;5058654;28;45403;-73
2023/01/17 01:36:11;;;;;;;;;2.00;1.33;;;;;5.35;67.54;98298.84;5058219;28;45364;-71
2023/01/17 01:38:37;;;;;;;;;10.67;9.33;;;;;5.88;67.53;98384.31;5040245;28;45424;-73
2023/01/17 01:41:02;;;;;;;;;10.00;8.67;;;;;6.09;67.08;98418.03;5058477;28;46105;-72
2023/01/17 01:43:47;;;;;;;;;8.33;8.33;;;;;6.02;67.86;98399.44;5058467;28;45402;-72
2023/01/17 01:46:30;;;;;;;;;8.67;8.00;;;;;6.24;67.23;98444.53;5040611;28;45448;-73
2023/01/17 01:49:04;;;;;;;;;10.00;9.00;;;;;6.38;66.72;98439.31;5058780;28;45356;-71
2023/01/17 01:51:40;;;;;;;;;9.33;8.00;;;;;6.25;66.69;98419.78;5059459;28;45715;-72
2023/01/17 01:54:12;;;;;;;;;9.67;8.33;;;;;5.82;66.41;98353.38;5056760;28;45536;-72
2023/01/17 01:56:38;;;;;;;;;12.00;8.00;;;;;6.38;67.43;98431.38;5058331;28;45497;-71
2023/01/17 01:59:09;;;;;;;;;9.00;8.00;;;;;5.86;67.33;98354.66;5058351;28;45214;-72
2023/01/17 02:01:34;;;;;;;;;9.00;8.00;;;;;5.96;67.37;98359.72;5057254;28;45843;-71
2023/01/17 02:04:01;;;;;;;;;11.33;9.00;;;;;6.38;66.93;98420.84;5041913;28;46041;-72
2023/01/17 02:06:36;;;;;;;;;10.00;9.00;;;;;6.36;67.24;98420.19;5058918;28;45308;-74
2023/01/17 02:09:07;;;;;;;;;8.00;8.00;;;;;5.61;67.47;98293.31;5040430;28;45497;-74
2023/01/17 02:11:36;;;;;;;;;12.67;9.33;;;;;6.03;67.23;98372.06;5057803;28;46793;-71
2023/01/17 02:14:02;;;;;;;;;5.67;5.67;;;;;6.22;67.62;98407.75;5057872;28;45313;-71
2023/01/17 02:16:50;;;;;;;;;9.00;7.00;;;;;5.06;67.42;98223.09;5036543;28;45566;-73
2023/01/17 02:19:52;;;;;;;;;8.00;8.00;;;;;6.13;68.06;98392.94;5038007;28;45449;-72
2023/01/17 02:23:12;;;;;;;;;4.67;4.67;;;;;5.70;68.21;98326.53;5037503;28;45402;-73
2023/01/17 02:26:10;;;;;;;;;6.00;6.00;;;;;6.16;68.03;98384.69;5037542;28;45390;-70
2023/01/17 02:28:47;;;;;;;;;5.00;5.00;;;;;6.12;68.13;98388.66;5036369;28;45233;-74
2023/01/17 02:31:24;;;;;;;;;7.33;7.33;;;;;6.02;68.23;98391.53;5036974;28;45400;-73
2023/01/17 02:33:59;;;;;;;;;7.33;7.33;;;;;5.76;68.13;98344.31;5037514;28;46574;-74
2023/01/17 02:36:55;;;;;;;;;5.00;5.00;;;;;5.18;69.03;98247.22;5036095;28;45512;-74
2023/01/17 02:39:29;;;;;;;;;7.33;4.67;;;;;5.96;68.17;98375.56;5036624;28;45383;-73
2023/01/17 02:42:03;;;;;;;;;4.00;4.00;;;;;5.98;68.89;98353.28;5037931;28;45452;-71
2023/01/17 02:44:28;;;;;;;;;9.33;7.67;;;;;6.02;68.33;98353.78;5037694;28;45664;-73
2023/01/17 02:46:56;;;;;;;;;8.33;8.00;;;;;5.94;68.80;98353.81;5037176;28;45269;-73
2023/01/17 02:49:27;;;;;;;;;7.33;7.33;;;;;5.98;69.08;98339.28;5037361;28;45522;-73
2023/01/17 02:52:30;;;;;;;;;12.00;10.33;;;;;5.96;68.71;98331.53;5037523;28;45534;-72
2023/01/17 02:55:14;;;;;;;;;16.00;13.67;;;;;5.94;69.00;98319.53;5035692;28;48896;-72
2023/01/17 02:58:23;;;;;;;;;14.67;13.33;;;;;5.90;68.64;98328.78;5037066;28;45571;-71
2023/01/17 03:01:16;;;;;;;;;16.00;13.00;;;;;5.39;69.07;98236.91;5035636;28;45285;-71
2023/01/17 03:04:03;;;;;;;;;16.67;15.00;;;;;5.83;69.24;98307.53;5037053;28;45273;-72
2023/01/17 03:06:40;;;;;;;;;15.33;12.00;;;;;5.58;68.86;98275.19;5040381;28;45599;-71
2023/01/17 03:09:08;;;;;;;;;11.33;11.33;;;;;5.70;69.14;98302.81;5035716;28;45456;-72
2023/01/17 03:11:33;;;;;;;;;14.00;11.67;;;;;5.62;69.37;98299.41;5036830;28;45324;-74
2023/01/17 03:13:59;;;;;;;;;14.67;11.67;;;;;4.83;70.30;98166.91;5037138;28;45506;-72
2023/01/17 03:16:26;;;;;;;;;13.00;11.33;;;;;5.67;69.46;98297.91;5047291;28;46665;-72
2023/01/17 03:18:52;;;;;;;;;16.00;13.33;;;;;5.66;69.55;98280.44;5057209;28;46199;-73
2023/01/17 03:21:18;;;;;;;;;19.67;17.00;;;;;5.70;69.18;98287.00;5057181;28;45490;-71
2023/01/17 03:23:43;;;;;;;;;14.67;14.67;;;;;5.71;69.29;98287.81;5057380;28;45359;-72
2023/01/17 03:26:09;;;;;;;;;14.67;12.33;;;;;5.75;68.81;98282.03;5056461;28;52876;-72
2023/01/17 03:28:34;;;;;;;;;15.00;12.33;;;;;5.19;69.01;98178.56;5056851;28;45272;-71
2023/01/17 03:30:59;;;;;;;;;14.67;14.67;;;;;5.74;68.96;98266.38;5057156;28;45542;-72
2023/01/17 03:33:25;;;;;;;;;14.00;14.00;;;;;5.72;68.74;98258.66;5057026;28;45395;-73
2023/01/17 03:35:50;;;;;;;;;8.33;8.00;;;;;5.58;68.97;98238.31;5056792;28;45500;-71
2023/01/17 03:38:15;;;;;;;;;14.00;11.00;;;;;5.43;69.02;98219.78;5056781;28;45343;-71
2023/01/17 03:40:41;;;;;;;;;12.33;11.00;;;;;5.36;69.25;98223.28;5056683;28;45340;-72
2023/01/17 03:43:06;;;;;;;;;11.33;11.33;;;;;5.61;68.99;98276.69;5056991;28;45311;-71
2023/01/17 03:45:32;;;;;;;;;8.33;8.33;;;;;5.26;69.38;98231.41;5056519;28;45967;-72
2023/01/17 03:47:58;;;;;;;;;15.33;15.33;;;;;5.49;69.42;98255.16;5056593;28;45281;-72
2023/01/17 03:50:24;;;;;;;;;12.67;11.00;;;;;5.56;69.61;98268.47;5038389;28;45427;-72
2023/01/17 03:52:50;;;;;;;;;14.00;10.00;;;;;5.57;69.90;98257.75;5038856;28;45615;-73
2023/01/17 03:55:15;;;;;;;;;14.67;12.67;;;;;5.29;69.63;98230.22;5056347;28;45979;-71
2023/01/17 03:57:41;;;;;;;;;15.00;12.33;;;;;5.46;69.77;98255.50;5056401;28;45308;-73
2023/01/17 04:00:08;;;;;;;;;11.67;11.33;;;;;5.13;70.02;98199.50;5034898;28;45389;-73
2023/01/17 04:02:33;;;;;;;;;16.33;11.33;;;;;5.47;69.96;98265.06;5037471;28;45209;-72
2023/01/17 04:04:59;;;;;;;;;14.00;14.00;;;;;5.31;70.03;98212.44;5036309;28;45495;-72
2023/01/17 04:07:24;;;;;;;;;12.33;11.00;;;;;5.41;70.26;98234.97;5036319;28;45479;-72
2023/01/17 04:09:49;;;;;;;;;17.00;14.00;;;;;5.25;69.85;98197.31;5018382;28;45250;-74
2023/01/17 04:12:15;;;;;;;;;14.33;11.00;;;;;5.42;70.34;98231.31;5018444;28;45534;-72
2023/01/17 04:14:40;;;;;;;;;13.33;10.67;;;;;5.42;70.78;98241.88;5018212;28;48356;-73
2023/01/17 04:17:11;;;;;;;;;11.00;11.00;;;;;4.64;70.16;98110.22;5035892;28;45369;-74
2023/01/17 04:19:37;;;;;;;;;10.33;5.00;;;;;5.43;70.40;98248.78;5036681;28;45296;-71
2023/01/17 04:22:02;;;;;;;;;16.00;14.33;;;;;5.44;69.92;98236.41;5036611;28;45538;-71
2023/01/17 04:24:28;;;;;;;;;15.33;11.00;;;;;5.33;70.10;98210.44;5020227;28;48848;-72
2023/01/17 04:26:53;;;;;;;;;12.67;11.00;;;;;5.46;70.39;98232.63;5021504;28;45258;-71
2023/01/17 04:29:19;;;;;;;;;13.50;13.50;;;;;5.43;70.22;98227.69;5039556;28;45195;-71
2023/01/17 04:31:46;;;;;;;;;11.67;9.00;;;;;5.13;70.71;98189.78;5059021;28;45616;-72
2023/01/17 04:34:12;;;;;;;;;12.67;12.00;;;;;5.39;71.06;98236.09;5059429;28;46420;-72
2023/01/17 04:36:37;;;;;;;;;13.00;13.00;;;;;4.59;71.02;98107.25;5059342;28;45417;-72
2023/01/17 04:39:02;;;;;;;;;14.33;11.00;;;;;5.05;70.39;98186.38;5059326;28;49840;-73
2023/01/17 04:41:28;;;;;;;;;9.67;9.67;;;;;4.99;71.43;98177.34;5059575;28;45463;-73
2023/01/17 04:43:53;;;;;;;;;17.00;10.00;;;;;5.32;70.86;98220.16;5041150;28;46986;-73
2023/01/17 04:46:18;;;;;;;;;16.00;16.00;;;;;5.23;71.76;98208.03;5041379;28;45293;-73
2023/01/17 04:48:44;;;;;;;;;15.67;15.67;;;;;5.33;71.63;98226.25;5060204;28;45421;-71
2023/01/17 04:51:09;;;;;;;;;12.00;12.00;;;;;5.27;71.00;98232.22;5060045;28;45238;-73
2023/01/17 04:53:34;;;;;;;;;13.00;12.33;;;;;4.98;71.35;98180.97;5041268;28;48036;-72
2023/01/17 04:56:00;;;;;;;;;17.33;16.67;;;;;5.15;71.73;98203.63;5041651;28;45597;-72
2023/01/17 04:58:26;;;;;;;;;20.67;18.00;;;;;4.84;71.43;98168.53;5060116;28;45535;-73
2023/01/17 05:00:51;;;;;;;;;16.00;15.33;;;;;5.11;71.63;98197.06;5041347;28;45502;-72
2023/01/17 05:03:21;;;;;;;;;15.00;15.00;;;;;4.82;71.77;98170.53;5059065;28;45662;-71
2023/01/17 05:05:47;;;;;;;;;15.67;15.67;;;;;4.96;72.42;98213.72;5059106;28;45373;-72
2023/01/17 05:08:13;;;;;;;;;14.33;14.00;;;;;4.77;72.69;98173.66;5059294;28;45436;-73
2023/01/17 05:10:39;;;;;;;;;17.67;16.67;;;;;4.57;72.47;98148.72;5041096;28;45334;-72
2023/01/17 05:13:04;;;;;;;;;17.00;16.00;;;;;4.67;72.55;98159.88;5058794;28;45903;-73
2023/01/17 05:15:30;;;;;;;;;17.67;17.67;;;;;4.78;72.65;98185.81;5040672;28;45454;-72
2023/01/17 05:17:55;;;;;;;;;21.00;19.00;;;;;4.17;72.68;98092.59;5059138;28;45286;-72
2023/01/17 05:20:24;;;;;;;;;22.67;19.33;;;;;4.07;72.72;98070.13;5059453;28;45296;-73
2023/01/17 05:22:54;;;;;;;;;16.33;16.33;;;;;4.74;73.21;98168.72;5060003;28;45486;-71
2023/01/17 05:25:24;;;;;;;;;16.33;14.33;;;;;4.68;72.94;98153.63;5058497;28;45297;-73
2023/01/17 05:27:49;;;;;;;;;19.33;15.00;;;;;4.74;72.83;98166.09;5058792;28;45212;-72
2023/01/17 05:30:16;;;;;;;;;18.33;18.33;;;;;4.80;73.12;98170.66;5058984;28;45463;-72
2023/01/17 05:32:46;;;;;;;;;16.33;15.00;;;;;4.78;72.46;98154.22;5040289;28;47509;-75
2023/01/17 05:35:12;;;;;;;;;15.33;13.00;;;;;4.69;72.84;98128.13;5040587;28;45330;-72
2023/01/17 05:37:37;;;;;;;;;16.00;13.00;;;;;4.25;72.10;98058.41;5040386;28;45587;-74
2023/01/17 05:40:04;;;;;;;;;21.67;18.00;;;;;4.90;72.50;98149.41;5058902;28;45375;-74
2023/01/17 05:42:30;;;;;;;;;21.00;20.00;;;;;4.86;73.07;98142.88;5058331;28;46549;-73
2023/01/17 05:44:55;;;;;;;;;20.00;15.00;;;;;4.90;72.51;98141.53;5058221;28;45555;-70
2023/01/17 05:47:21;;;;;;;;;18.00;14.67;;;;;4.71;72.16;98111.16;5040540;28;45442;-72
2023/01/17 05:49:46;;;;;;;;;18.00;15.33;;;;;4.99;72.41;98135.22;5058830;28;45389;-72
2023/01/17 05:52:11;;;;;;;;;15.00;14.33;;;;;5.01;72.60;98150.88;5058140;28;46561;-72
2023/01/17 05:54:37;;;;;;;;;25.33;15.67;;;;;4.91;72.36;98129.19;5058327;28;45547;-72
2023/01/17 05:57:02;;;;;;;;;20.67;17.00;;;;;3.19;72.01;97850.31;5058277;28;45265;-72
2023/01/17 05:59:27;;;;;;;;;20.33;14.00;;;;;5.04;72.83;98134.72;5058324;28;45565;-72
2023/01/17 06:01:53;;;;;;;;;16.00;14.67;;;;;5.12;72.12;98140.75;5057984;28;49638;-72
2023/01/17 06:04:18;;;;;;;;;21.67;17.00;;;;;5.18;71.50;98134.78;5058219;28;45313;-70
2023/01/17 06:06:43;;;;;;;;;21.00;17.33;;;;;4.98;71.35;98090.63;5058262;28;45492;-71
2023/01/17 06:09:10;;;;;;;;;18.00;15.00;;;;;5.17;71.01;98101.53;5040180;28;45309;-73
2023/01/17 06:11:35;;;;;;;;;20.67;18.67;;;;;5.27;71.50;98132.13;5059140;28;45695;-73
2023/01/17 06:14:01;;;;;;;;;14.00;14.00;;;;;5.23;71.55;98128.19;5059780;28;45484;-70
2023/01/17 06:16:26;;;;;;;;;20.00;16.00;;;;;4.78;71.21;98043.69;5036556;28;45296;-72
2023/01/17 06:18:52;;;;;;;;;15.67;13.67;;;;;4.81;70.92;98039.91;5038260;28;45409;-75
2023/01/17 06:21:18;;;;;;;;;22.00;17.00;;;;;5.36;71.55;98129.25;5036521;28;47408;-74
2023/01/17 06:23:43;;;;;;;;;15.33;12.67;;;;;4.90;70.62;98041.50;5037618;28;45410;-73
2023/01/17 06:26:09;;;;;;;;;22.33;20.00;;;;;5.37;70.30;98125.63;5037835;28;45432;-74
2023/01/17 06:28:34;;;;;;;;;22.00;17.67;;;;;5.33;71.08;98111.16;5038282;28;45638;-72
2023/01/17 06:31:04;;;;;;;;;16.67;15.33;;;;;5.22;71.08;98100.22;5038644;28;45240;-73
2023/01/17 06:33:30;;;;;;;;;17.33;14.00;;;;;5.00;71.02;98071.03;5038964;28;45631;-76
2023/01/17 06:35:55;;;;;;;;;16.00;13.00;;;;;5.23;71.35;98120.28;5037104;28;57019;-73
2023/01/17 06:38:20;;;;;;;;;14.00;11.67;;;;;5.21;71.70;98107.31;5037155;28;51754;-74
2023/01/17 06:40:46;;;;;;;;;15.67;11.00;;;;;4.91;71.62;98055.47;5037140;28;48782;-74
2023/01/17 06:43:11;;;;;;;;;16.33;13.00;;;;;5.37;70.46;98111.63;5037173;28;45252;-73
2023/01/17 06:45:37;;;;;;;;;16.33;15.33;;;;;5.44;70.77;98110.75;5037709;28;45548;-75
2023/01/17 06:48:03;;;;;;;;;15.33;13.67;;;;;5.48;70.30;98127.84;5041051;28;45435;-71
2023/01/17 06:50:30;;;;;;;;;21.33;16.33;;;;;5.59;71.23;98129.25;5047567;28;45651;-73
2023/01/17 06:52:58;;;;;;;;;16.00;15.00;;;;;5.62;70.31;98113.09;5025612;28;45415;-72
2023/01/17 06:55:27;;;;;;;;;19.00;17.67;;;;;5.48;70.11;98085.69;5020012;28;45345;-72
2023/01/17 06:57:57;;;;;;;;;16.33;14.00;;;;;5.72;69.66;98121.56;5037274;28;45400;-74
2023/01/17 07:00:22;;;;;;;;;15.67;14.33;;;;;5.69;69.92;98127.19;5036830;28;45672;-75
2023/01/17 07:02:49;;;;;;;;;17.00;17.00;;;;;5.28;69.92;98044.19;5036803;28;47144;-72
2023/01/17 07:05:16;;;;;;;;;14.67;9.67;;;;;5.62;69.60;98093.84;5036324;28;45352;-73
2023/01/17 07:07:42;;;;;;;;;16.33;14.67;;;;;5.88;69.87;98111.91;5037145;28;45694;-72
2023/01/17 07:10:08;;;;;;;;;19.33;17.67;;;;;5.47;69.64;98035.81;5036634;28;46004;-74
2023/01/17 07:12:33;;;;;;;;;14.00;14.00;;;;;5.15;69.44;97998.19;5035933;28;45257;-71
2023/01/17 07:14:59;;;;;;;;;18.00;15.33;;;;;5.88;69.31;98120.63;5035931;28;45329;-76
2023/01/17 07:17:24;;;;;;;;;16.67;15.00;;;;;5.77;69.08;98116.59;5035401;28;45557;-75
2023/01/17 07:19:49;;;;;;;;;19.00;17.67;;;;;5.76;69.78;98104.41;5034761;28;60771;-73
2023/01/17 07:22:15;;;;;;;;;14.67;14.67;;;;;5.87;69.22;98116.34;5030476;28;45450;-72
2023/01/17 07:24:41;;;;;;;;;15.33;15.33;;;;;6.01;70.09;98122.69;5034948;28;46014;-82
2023/01/17 07:27:06;;;;;;;;;16.00;16.00;;;;;5.80;68.97;98092.50;5033989;28;45563;-75
2023/01/17 07:29:32;;;;;;;;;15.67;12.67;;;;;5.84;68.95;98102.72;5035327;28;46064;-73
2023/01/17 07:31:57;;;;;;;;;11.33;10.33;;;;;6.06;69.35;98121.16;5036374;28;45471;-74
2023/01/17 07:34:22;;;;;;;;;17.00;17.00;;;;;5.41;68.86;98044.44;5032356;28;46365;-74
2023/01/17 07:36:48;;;;;;;;;12.00;11.67;;;;;5.74;68.89;98097.66;5034744;28;45510;-72
2023/01/17 07:39:14;;;;;;;;;17.67;17.67;;;;;5.45;69.23;98056.25;5036474;28;46294;-75
2023/01/17 07:41:40;;;;;;;;;18.67;18.00;;;;;5.91;69.41;98130.03;5036966;28;45530;-75
2023/01/17 07:44:07;;;;;;;;;18.67;15.67;;;;;5.98;69.90;98117.75;5035618;28;45337;-73
2023/01/17 07:46:33;;;;;;;;;16.67;15.00;;;;;5.38;68.65;98034.22;5035409;28;45630;-71
2023/01/17 07:48:58;;;;;;;;;14.67;12.00;;;;;5.82;69.71;98120.53;5033825;28;47671;-72
2023/01/17 07:51:24;;;;;;;;;17.00;17.00;;;;;5.72;70.22;98116.31;5036015;28;45449;-74
2023/01/17 07:53:49;;;;;;;;;24.00;16.33;;;;;5.61;70.33;98124.66;5036737;28;45606;-77
2023/01/17 07:56:14;;;;;;;;;17.33;16.00;;;;;4.71;70.99;97978.75;5038150;28;45511;-74
2023/01/17 07:58:39;;;;;;;;;17.67;15.67;;;;;5.60;71.01;98104.53;5038788;28;46536;-73
2023/01/17 08:01:13;;;;;;;;;18.67;17.00;;;;;5.66;70.86;98124.94;5041247;28;45489;-75
2023/01/17 08:03:39;;;;;;;;;17.00;14.67;;;;;5.45;71.47;98093.97;5040352;28;45427;-73
2023/01/17 08:06:17;;;;;;;;;17.00;14.67;;;;;5.52;71.74;98117.78;5040211;28;45488;-74
2023/01/17 08:08:42;;;;;;;;;20.67;15.67;;;;;5.61;71.50;98119.38;5039407;28;45473;-75
2023/01/17 08:11:08;;;;;;;;;15.33;13.00;;;;;5.23;71.60;98075.53;5038094;28;45514;-73
2023/01/17 08:13:33;;;;;;;;;14.33;11.67;;;;;5.36;71.49;98099.44;5040514;28;45463;-74
2023/01/17 08:16:01;;;;;;;;;16.00;14.33;;;;;5.21;71.04;98091.50;5053037;28;45439;-73
2023/01/17 08:18:27;;;;;;;;;16.33;16.00;;;;;5.55;72.31;98130.59;5058079;28;45350;-72
2023/01/17 08:20:53;;;;;;;;;15.00;14.00;;;;;5.37;71.14;98101.09;5060040;28;45427;-74
2023/01/17 08:23:18;;;;;;;;;16.00;13.33;;;;;5.44;71.90;98125.75;5041708;28;45489;-72
2023/01/17 08:25:44;;;;;;;;;13.00;10.67;;;;;5.29;71.47;98088.81;5057666;28;45604;-74
2023/01/17 08:28:09;;;;;;;;;13.33;11.67;;;;;5.56;71.76;98129.59;5057493;28;46000;-73
2023/01/17 08:30:35;;;;;;;;;17.67;16.33;;;;;5.38;71.74;98108.81;5060212;28;45467;-72
2023/01/17 08:33:00;;;;;;;;;18.00;15.67;;;;;5.42;71.33;98125.13;5050333;28;45276;-79
2023/01/17 08:35:26;;;;;;;;;15.67;13.33;;;;;4.87;72.26;98044.47;5066396;28;45515;-73
2023/01/17 08:37:53;;;;;;;;;15.33;12.00;;;;;5.45;72.11;98125.56;5081143;28;45963;-72
2023/01/17 08:40:19;;;;;;;;;18.67;18.00;;;;;5.52;71.34;98124.88;5080217;27;45368;-72
2023/01/17 08:42:56;;;;;;;;;20.33;18.00;;;;;5.55;71.74;98127.97;5080271;28;45260;-73
2023/01/17 08:45:21;;;;;;;;;21.67;21.67;;;;;5.47;71.11;98105.13;5079915;27;45216;-73
2023/01/17 08:47:46;;;;;;;;;17.33;16.33;;;;;5.65;70.86;98135.66;5061216;28;47761;-72
2023/01/17 08:50:12;;;;;;;;;23.67;19.67;;;;;5.67;71.39;98118.66;5061425;28;45252;-73
2023/01/17 08:52:37;;;;;;;;;22.00;20.67;;;;;5.21;71.03;98043.28;5066674;28;45505;-73
2023/01/17 08:55:04;;;;;;;;;22.67;16.00;;;;;5.52;70.89;98083.53;5060136;28;45470;-72
2023/01/17 08:57:30;;;;;;;;;18.67;15.00;;;;;4.74;71.05;97973.16;5059241;28;45576;-73
2023/01/17 08:59:55;;;;;;;;;15.33;15.00;;;;;5.70;70.26;98118.28;5040861;28;46197;-73
2023/01/17 09:02:23;;;;;;;;;15.67;13.67;;;;;5.66;70.22;98105.66;5059294;28;45395;-74
2023/01/17 09:04:49;;;;;;;;;19.00;17.33;;;;;5.26;70.74;98054.09;5042338;28;45539;-74
2023/01/17 09:07:16;;;;;;;;;17.00;15.00;;;;;5.40;70.53;98067.28;5060795;28;46264;-72
2023/01/17 09:09:41;;;;;;;;;20.00;17.00;;;;;5.15;69.94;98029.78;5059285;28;45470;-73
2023/01/17 09:12:07;;;;;;;;;16.67;16.00;;;;;5.58;70.69;98093.34;5044238;28;45339;-73
2023/01/17 09:14:33;;;;;;;;;11.00;11.00;;;;;5.65;70.75;98120.66;5066016;28;45331;-73
2023/01/17 09:16:59;;;;;;;;;18.67;18.00;;;;;5.73;70.35;98111.84;5061852;28;46680;-73
2023/01/17 09:19:25;;;;;;;;;15.33;13.67;;;;;4.57;70.22;97901.38;5059377;28;45283;-71
2023/01/17 09:21:50;;;;;;;;;11.33;10.33;;;;;5.22;70.05;98018.56;5059761;28;45253;-71
2023/01/17 09:24:15;;;;;;;;;21.00;15.67;;;;;5.31;69.80;98020.13;5041550;28;45565;-75
2023/01/17 09:26:41;;;;;;;;;18.00;16.67;;;;;4.82;69.40;97917.84;5060237;28;46075;-72
2023/01/17 09:29:06;;;;;;;;;16.67;12.00;;;;;5.86;68.84;98084.88;5042256;28;45382;-76
2023/01/17 09:31:32;;;;;;;;;18.33;16.33;;;;;6.09;69.66;98112.06;5041937;28;45328;-74
2023/01/17 09:33:58;;;;;;;;;18.00;17.00;;;;;5.74;69.40;98029.94;5041908;28;45539;-73
2023/01/17 09:36:27;;;;;;;;;12.00;11.67;;;;;5.47;69.09;98006.81;5041036;28;45562;-73
2023/01/17 09:39:01;;;;;;;;;13.00;12.00;;;;;4.78;68.73;97922.59;5060305;28;45202;-73
2023/01/17 09:41:35;;;;;;;;;11.00;9.67;;;;;5.76;70.17;98080.66;5059517;28;45278;-76
2023/01/17 09:44:22;;;;;;;;;13.67;11.00;;;;;5.71;69.60;98043.50;5059529;28;45372;-73
2023/01/17 09:46:50;;;;;;;;;13.33;10.00;;;;;6.20;68.80;98113.41;5058177;28;46426;-74
2023/01/17 09:49:46;;;;;;;;;13.67;10.67;;;;;6.19;68.87;98128.44;5058608;28;45368;-73
2023/01/17 09:52:15;;;;;;;;;12.00;12.00;;;;;5.96;68.89;98065.19;5059751;28;45367;-71
2023/01/17 09:54:43;;;;;;;;;11.67;10.00;;;;;5.00;68.76;97892.00;5059433;28;45681;-75
2023/01/17 09:57:27;;;;;;;;;12.00;11.00;;;;;6.45;68.55;98129.84;5058248;28;46434;-73
2023/01/17 10:00:30;;;;;;;;;12.00;9.33;;;;;6.34;67.65;98136.38;5058604;28;45341;-75
2023/01/17 10:03:22;;;;;;;;;16.33;14.00;;;;;5.63;68.74;98059.38;5060244;28;45566;-71
2023/01/17 10:06:07;;;;;;;;;13.00;11.67;;;;;6.01;68.84;98141.16;5060417;28;45332;-72
2023/01/17 10:09:02;;;;;;;;;13.67;12.00;;;;;6.08;69.39;98155.25;5059155;28;45761;-73
2023/01/17 10:11:33;;;;;;;;;15.33;11.33;;;;;6.17;69.04;98153.34;5059643;28;45408;-73
2023/01/17 10:14:14;;;;;;;;;16.00;11.00;;;;;6.13;69.87;98154.72;5040650;28;45303;-73
2023/01/17 10:16:47;;;;;;;;;14.67;11.67;;;;;6.23;68.48;98158.75;5057155;28;45451;-75
2023/01/17 10:19:34;;;;;;;;;12.67;10.00;;;;;6.11;69.50;98152.25;5053414;28;47866;-73
2023/01/17 10:22:18;;;;;;;;;13.00;11.67;;;;;6.15;69.88;98158.81;5038810;28;45573;-76
2023/01/17 10:25:05;;;;;;;;;14.00;11.00;;;;;6.08;69.20;98149.97;5058105;28;45512;-74
2023/01/17 10:27:33;;;;;;;;;14.50;11.00;;;;;6.14;69.88;98162.44;5057921;28;45242;-73
2023/01/17 10:30:12;;;;;;;;;13.33;12.33;;;;;5.90;69.06;98096.75;5058326;28;45294;-73
2023/01/17 10:32:44;;;;;;;;;15.33;14.00;;;;;5.23;69.11;98007.03;5057628;28;45463;-73
2023/01/17 10:35:19;;;;;;;;;10.67;10.67;;;;;5.88;68.85;98117.16;5058155;28;45496;-72
2023/01/17 10:37:45;;;;;;;;;8.33;8.33;;;;;5.06;69.15;97995.81;5057263;28;45248;-74
2023/01/17 10:40:18;;;;;;;;;13.50;13.50;;;;;5.75;69.73;98123.84;5035816;28;48395;-73
2023/01/17 10:42:52;;;;;;;;;12.00;12.00;;;;;5.63;70.67;98120.00;5051890;28;45404;-74
2023/01/17 10:45:27;;;;;;;;;17.00;13.33;;;;;5.73;69.95;98144.31;5058171;28;45249;-72
2023/01/17 10:48:11;;;;;;;;;20.00;16.00;;;;;5.82;70.02;98152.16;5070261;28;45418;-71
2023/01/17 10:51:02;;;;;;;;;12.67;11.33;;;;;5.90;70.16;98154.75;5060266;28;47429;-73
2023/01/17 10:53:48;;;;;;;;;16.67;12.67;;;;;6.06;70.26;98150.16;5077992;28;45328;-71
2023/01/17 10:56:17;;;;;;;;;14.67;13.33;;;;;5.16;69.56;97999.81;5045340;28;46557;-77
2023/01/17 10:58:42;;;;;;;;;4.00;2.33;;;;;5.70;70.78;98096.38;5057386;28;45453;-74
2023/01/17 11:01:19;;;;;;;;;17.67;15.33;;;;;5.14;69.85;98017.63;5039132;28;45760;-72
2023/01/17 11:03:53;;;;;;;;;12.67;12.67;;;;;5.63;70.89;98122.66;5057317;28;45645;-73
2023/01/17 11:06:22;;;;;;;;;17.00;15.33;;;;;5.24;70.98;98045.53;5039019;28;45295;-73
2023/01/17 11:08:55;;;;;;;;;16.67;13.67;;;;;5.69;70.65;98111.38;5041461;28;45554;-74
2023/01/17 11:11:30;;;;;;;;;15.67;15.67;;;;;5.98;70.60;98136.22;5039274;28;45968;-74
2023/01/17 11:14:04;;;;;;;;;18.33;15.33;;;;;6.03;70.09;98112.78;5055333;28;45534;-74
2023/01/17 11:16:30;;;;;;;;;15.00;13.00;;;;;6.05;69.90;98105.50;5052060;28;45415;-73
2023/01/17 11:19:20;;;;;;;;;16.00;12.67;;;;;6.09;69.85;98112.88;5037267;28;45502;-75
2023/01/17 11:21:53;;;;;;;;;14.33;14.33;;;;;5.76;69.86;98038.50;5037245;28;47117;-74
2023/01/17 11:24:27;;;;;;;;;16.67;14.33;;;;;6.28;69.46;98111.53;5036217;28;45418;-74
2023/01/17 11:26:52;;;;;;;;;18.33;16.33;;;;;5.24;69.54;97958.63;5042648;28;45341;-75
2023/01/17 11:29:50;;;;;;;;;21.00;16.67;;;;;6.14;70.07;98111.50;5039282;28;45482;-75
2023/01/17 11:32:21;;;;;;;;;11.33;11.33;;;;;6.16;70.23;98112.16;5031317;28;46663;-75
2023/01/17 11:35:13;;;;;;;;;12.33;12.33;;;;;6.23;69.46;98113.91;5059967;28;45467;-75
2023/01/17 11:37:47;;;;;;;;;17.00;15.67;;;;;6.32;69.61;98107.53;5050131;28;45309;-74
2023/01/17 11:40:33;;;;;;;;;18.00;14.67;;;;;5.84;68.97;98015.69;5061427;28;45265;-73
2023/01/17 11:42:58;;;;;;;;;19.00;18.00;;;;;6.52;68.83;98109.63;5065195;28;45336;-73
2023/01/17 11:45:30;;;;;;;;;20.67;17.67;;;;;6.58;68.40;98100.97;5042498;28;46008;-73
2023/01/17 11:48:22;;;;;;;;;15.00;15.00;;;;;6.37;68.51;98105.16;5066560;28;45325;-73
2023/01/17 11:50:57;;;;;;;;;21.00;16.00;;;;;6.33;69.06;98111.81;5061752;28;45383;-73
2023/01/17 11:53:33;;;;;;;;;17.00;15.67;;;;;4.18;69.24;97756.84;5042883;28;45682;-74
2023/01/17 11:56:16;;;;;;;;;18.67;16.33;;;;;6.40;69.23;98099.50;5058649;28;45539;-73
2023/01/17 11:58:42;;;;;;;;;20.00;17.33;;;;;5.75;69.71;97992.03;5061721;28;45274;-73
2023/01/17 12:01:19;;;;;;;;;17.67;16.00;;;;;6.46;69.36;98095.34;5042071;28;45611;-75
2023/01/17 12:04:07;;;;;;;;;18.67;15.33;;;;;6.47;69.09;98088.25;5057708;28;48037;-70
2023/01/17 12:06:57;;;;;;;;;14.67;14.67;;;;;6.11;69.12;98025.66;5022439;28;45803;-72
2023/01/17 12:09:38;;;;;;;;;20.33;17.67;;;;;4.74;69.21;97823.94;5056863;28;45741;-73
2023/01/17 12:15:26;;;;;;;;;19.67;17.33;;;;;6.17;69.53;98085.59;5071042;27;45672;-74
2023/01/17 12:18:07;;;;;;;;;16.67;12.00;;;;;6.12;69.68;98090.59;5066140;28;45577;-74
2023/01/17 12:20:35;;;;;;;;;14.33;14.33;;;;;6.12;70.07;98084.50;5057023;28;45518;-75
2023/01/17 12:23:28;;;;;;;;;15.33;15.00;;;;;6.13;69.84;98084.31;5041579;28;45621;-70
2023/01/17 12:26:19;;;;;;;;;14.67;12.33;;;;;5.54;70.44;97977.94;5059626;28;46358;-73
2023/01/17 12:29:18;;;;;;;;;14.67;14.33;;;;;5.96;69.60;98091.56;5049327;28;45261;-73
2023/01/17 12:32:02;;;;;;;;;16.00;11.00;;;;;5.86;70.31;98075.16;5023790;28;45530;-73
2023/01/17 12:34:56;;;;;;;;;17.67;15.67;;;;;5.90;70.47;98070.38;5040993;28;45430;-71
2023/01/17 12:37:35;;;;;;;;;16.00;12.67;;;;;4.83;70.61;97901.03;5041159;28;45470;-73
2023/01/17 12:40:32;;;;;;;;;16.67;13.33;;;;;5.21;71.24;97988.78;5021916;28;45506;-72
2023/01/17 12:43:04;;;;;;;;;17.00;13.67;;;;;5.93;70.53;98077.91;5021363;28;45260;-73
2023/01/17 12:45:42;;;;;;;;;11.67;11.67;;;;;6.07;70.67;98077.13;5040591;28;45619;-74
2023/01/17 12:48:18;;;;;;;;;13.00;11.00;;;;;5.77;70.01;98034.84;5040565;28;46892;-73
2023/01/17 12:50:57;;;;;;;;;14.33;14.33;;;;;6.02;70.45;98059.22;5036241;28;45465;-71
2023/01/17 12:53:33;;;;;;;;;82.25;53.50;;;;;6.21;71.18;98068.41;5040965;28;45440;-73
2023/01/17 12:56:13;;;;;;;;;15.67;10.67;;;;;6.34;69.49;98052.75;5057919;28;45531;-72
2023/01/17 12:58:43;;;;;;;;;16.67;15.00;;;;;6.41;69.05;98087.16;5036714;28;48358;-73
2023/01/17 13:01:24;;;;;;;;;19.33;19.00;;;;;6.27;69.53;98067.69;5039064;28;45429;-71
2023/01/17 13:03:59;;;;;;;;;16.00;14.67;;;;;5.29;69.36;97928.13;5038828;28;45516;-72
2023/01/17 13:06:34;;;;;;;;;18.00;13.67;;;;;5.24;69.76;97922.56;5039193;28;45246;-72
2023/01/17 13:09:02;;;;;;;;;21.33;17.00;;;;;6.05;70.15;98047.47;5039440;28;47526;-73
2023/01/17 13:11:55;;;;;;;;;18.00;16.00;;;;;4.92;69.51;97860.47;5059165;28;45711;-73